Overview Statistics Trail Chart Weather Telemetry Raw packets
 

This is the latest recevied weather packets stored in our database for station/object YD2CLX-11. If no packets are shown the sender has not sent any weather packets the latest 10 day(s).

<< 18 19 20 21 22 23 24 >>
Time Temp. Humidity Pressure Rain* Wind** Luminosity Snow
1788314783 34.44° C 45% 1001.4 hPa - - - -
1788314181 33.89° C 46% 1001.6 hPa - - - -
1788313579 33.89° C 47% 1001.6 hPa - - - -
1788312977 33.33° C 47% 1001.7 hPa - - - -
1788312376 32.78° C 49% 1001.9 hPa - - - -
1788311775 32.22° C 50% 1001.8 hPa - - - -
1788311174 32.22° C 49% 1001.7 hPa - - - -
1788310573 32.22° C 51% 1001.7 hPa - - - -
1788309972 32.22° C 53% 1001.8 hPa - - - -
1788309371 32.22° C 55% 1001.7 hPa - - - -
1788308770 31.67° C 61% 1001.7 hPa - - - -
1788308169 30.56° C 66% 1001.6 hPa - - - -
1788307568 30° C 68% 1001.4 hPa - - - -
1788306967 28.33° C 73% 1001.4 hPa - - - -
1788306366 27.22° C 75% 1001.2 hPa - - - -
1788305765 26.11° C 77% 1001.2 hPa - - - -
1788305164 25.56° C 78% 1001.1 hPa - - - -
1788304563 25° C 79% 1001 hPa - - - -
1788303962 24.44° C 79% 1000.8 hPa - - - -
1788303361 23.33° C 82% 1000.8 hPa - - - -
1788302760 21.67° C 85% 1000.5 hPa - - - -
1788302159 21.67° C 86% 1000.5 hPa - - - -
1788301557 21.67° C 86% 1000.5 hPa - - - -
1788300956 21.67° C 85% 1000.3 hPa - - - -
1788300355 21.67° C 86% 1000.4 hPa - - - -

* Rain since midnight (hover to see other rain measurements)
** Current wind speed in m/s (hover to see current wind gust speed)